Time;durP1;ratioP1;P1;durP2;ratioP2;P2;SDS_P1;SDS_P2;PMS_P1;PMS_P2;Temp;Humidity;BMP_temperature;BMP_pressure;BME280_temperature;BME280_humidity;BME280_pressure;Samples;Min_cycle;Max_cycle;Signal;HPM_P1;HPM_P2
2022/01/30 00:01:44;;;;;;;30.77;5.93;;;6.70;99.90;;;;;;4993984;28;20377;-76
2022/01/30 00:04:11;;;;;;;30.63;4.37;;;6.70;99.90;;;;;;4994789;28;20054;-75
2022/01/30 00:06:37;;;;;;;30.67;4.50;;;6.70;99.90;;;;;;4978807;28;20620;-75
2022/01/30 00:09:06;;;;;;;30.87;4.53;;;6.70;99.90;;;;;;5003401;28;20125;-76
2022/01/30 00:11:35;;;;;;;29.73;4.70;;;6.80;99.90;;;;;;4992251;28;20493;-76
2022/01/30 00:14:03;;;;;;;31.43;5.83;;;6.80;99.90;;;;;;4977447;28;20170;-75
2022/01/30 00:16:33;;;;;;;28.90;4.40;;;6.80;99.90;;;;;;5009126;28;20046;-77
2022/01/30 00:19:21;;;;;;;29.57;4.93;;;6.80;99.90;;;;;;4993016;28;20566;-75
2022/01/30 00:21:59;;;;;;;26.53;4.73;;;6.70;99.90;;;;;;4992192;28;20050;-76
2022/01/30 00:24:45;;;;;;;25.97;4.83;;;6.70;99.90;;;;;;4992645;28;20056;-76
2022/01/30 00:27:17;;;;;;;33.90;5.70;;;6.70;99.90;;;;;;4991850;28;20048;-76
2022/01/30 00:29:43;;;;;;;26.67;4.70;;;6.70;99.90;;;;;;4989937;28;20595;-77
2022/01/30 00:32:08;;;;;;;29.23;4.90;;;6.70;99.90;;;;;;5012553;28;20073;-75
2022/01/30 00:34:34;;;;;;;29.87;4.53;;;6.60;99.90;;;;;;4993373;28;20065;-76
2022/01/30 00:37:04;;;;;;;36.20;4.93;;;6.60;99.90;;;;;;4992291;28;20516;-76
2022/01/30 00:39:30;;;;;;;29.80;5.23;;;6.50;99.90;;;;;;4994535;28;20057;-75
2022/01/30 00:41:56;;;;;;;31.03;5.67;;;6.50;99.90;;;;;;4977232;28;20046;-75
2022/01/30 00:44:22;;;;;;;28.10;4.43;;;6.50;99.90;;;;;;4975230;28;20135;-75
2022/01/30 00:46:48;;;;;;;30.30;4.70;;;6.50;99.90;;;;;;4979136;28;20643;-75
2022/01/30 00:49:14;;;;;;;21.40;4.00;;;6.50;99.90;;;;;;4960876;28;20133;-75
2022/01/30 00:51:40;;;;;;;24.80;4.47;;;6.50;99.90;;;;;;4977076;28;20045;-74
2022/01/30 00:54:07;;;;;;;28.97;5.27;;;6.60;99.90;;;;;;4976391;28;20416;-75
2022/01/30 00:56:33;;;;;;;29.97;4.80;;;6.60;99.90;;;;;;4995194;28;20050;-75
2022/01/30 00:58:59;;;;;;;28.13;4.80;;;6.70;99.90;;;;;;5009184;28;20046;-75
2022/01/30 01:01:25;;;;;;;25.27;4.10;;;6.70;99.90;;;;;;4976255;28;20065;-76
2022/01/30 01:03:50;;;;;;;29.80;5.13;;;6.70;99.90;;;;;;4976653;28;20045;-76
2022/01/30 01:06:16;;;;;;;34.87;4.27;;;6.60;99.90;;;;;;4963981;28;20164;-76
2022/01/30 01:08:51;;;;;;;27.73;4.60;;;6.50;99.90;;;;;;4973541;28;20073;-76
2022/01/30 01:24:11;;;;;;;22.03;4.10;;;5.80;99.90;;;;;;4984479;28;20034;-76
2022/01/30 01:26:38;;;;;;;20.93;3.60;;;5.70;99.90;;;;;;4990634;28;20053;-75
2022/01/30 01:29:05;;;;;;;21.07;3.77;;;5.60;99.90;;;;;;4996566;28;20065;-75
2022/01/30 01:31:31;;;;;;;27.07;5.17;;;5.60;99.90;;;;;;4996376;28;20077;-76
2022/01/30 01:34:12;;;;;;;30.03;4.60;;;5.60;99.90;;;;;;4979639;28;20415;-75
2022/01/30 01:36:38;;;;;;;25.17;4.13;;;5.50;99.90;;;;;;5006576;28;20319;-76
2022/01/30 01:39:04;;;;;;;26.27;4.53;;;5.50;99.90;;;;;;4948817;28;20502;-75
2022/01/30 01:41:32;;;;;;;28.30;5.00;;;5.50;99.90;;;;;;4979872;28;20038;-73
2022/01/30 01:44:00;;;;;;;41.37;5.60;;;5.40;99.90;;;;;;4995272;28;20043;-75
2022/01/30 01:46:30;;;;;;;27.33;4.67;;;5.40;99.90;;;;;;4995750;28;20073;-76
2022/01/30 01:48:56;;;;;;;35.83;4.77;;;5.40;99.90;;;;;;4993865;28;20049;-77
2022/01/30 01:51:24;;;;;;;28.17;5.00;;;5.40;99.90;;;;;;4979689;28;20042;-77
2022/01/30 01:53:53;;;;;;;30.13;5.10;;;5.40;99.90;;;;;;4974000;28;20493;-74
2022/01/30 01:56:19;;;;;;;27.07;5.20;;;5.40;99.90;;;;;;5013766;28;20531;-76
2022/01/30 01:58:52;;;;;;;28.98;4.43;;;5.40;99.90;;;;;;5012438;28;20052;-76
2022/01/30 02:01:37;;;;;;;30.52;4.57;;;5.50;99.90;;;;;;4998314;28;20092;-75
2022/01/30 02:04:04;;;;;;;28.57;4.87;;;5.50;99.90;;;;;;4992045;28;20041;-76
2022/01/30 02:06:29;;;;;;;27.20;3.70;;;5.50;99.90;;;;;;4995221;28;20488;-76
2022/01/30 02:09:00;;;;;;;31.40;4.60;;;5.60;99.90;;;;;;4979511;28;20512;-76
2022/01/30 02:11:37;;;;;;;29.57;5.33;;;5.70;99.90;;;;;;4990648;28;20403;-76
2022/01/30 02:24:56;;;;;;;31.80;4.80;;;5.80;99.90;;;;;;4991522;28;20084;-76
2022/01/30 02:27:25;;;;;;;33.77;4.80;;;5.80;99.90;;;;;;5011459;28;20058;-75
2022/01/30 02:29:52;;;;;;;29.97;4.30;;;5.80;99.90;;;;;;4979198;28;20053;-75
2022/01/30 02:32:18;;;;;;;35.23;5.53;;;5.70;99.90;;;;;;5012904;28;20077;-75
2022/01/30 02:34:44;;;;;;;40.37;6.50;;;5.70;99.90;;;;;;4995216;28;20435;-76
2022/01/30 02:37:12;;;;;;;31.10;6.60;;;5.70;99.90;;;;;;4964109;28;20038;-75
2022/01/30 02:39:39;;;;;;;37.23;5.10;;;5.80;99.90;;;;;;4994947;28;20042;-76
2022/01/30 02:42:05;;;;;;;36.20;5.40;;;5.80;99.90;;;;;;4978007;28;20463;-76
2022/01/30 02:44:40;;;;;;;42.37;5.87;;;5.90;99.90;;;;;;4961936;28;20058;-77
2022/01/30 02:47:21;;;;;;;35.47;5.53;;;5.90;99.90;;;;;;4981673;28;20033;-74
2022/01/30 02:52:33;;;;;;;29.65;4.95;;;6.00;99.90;;;;;;4978506;28;20038;-75
2022/01/30 02:55:00;;;;;;;31.83;5.23;;;6.10;99.90;;;;;;4994825;28;20527;-76
2022/01/30 02:57:25;;;;;;;35.23;4.93;;;6.10;99.90;;;;;;4978492;28;20053;-75
2022/01/30 02:59:51;;;;;;;42.00;5.53;;;6.10;99.90;;;;;;4978724;28;20129;-75
2022/01/30 03:02:17;;;;;;;34.97;5.30;;;6.10;99.90;;;;;;4977807;28;20060;-77
2022/01/30 03:04:43;;;;;;;38.27;6.17;;;6.10;99.90;;;;;;5029829;23;20048;-75
2022/01/30 03:07:09;;;;;;;39.33;5.57;;;6.20;99.90;;;;;;5033288;28;20110;-76
2022/01/30 03:09:39;;;;;;;42.03;6.27;;;6.10;99.90;;;;;;5028785;28;20734;-76
2022/01/30 03:12:08;;;;;;;35.07;5.93;;;6.00;99.90;;;;;;5041898;28;20041;-75
2022/01/30 03:14:34;;;;;;;31.40;4.97;;;5.90;99.90;;;;;;5011904;28;20091;-76
2022/01/30 03:17:00;;;;;;;27.63;4.63;;;5.80;99.90;;;;;;5017179;28;20041;-76
2022/01/30 03:19:26;;;;;;;26.13;4.57;;;5.80;99.90;;;;;;5049280;28;20038;-77
2022/01/30 03:21:52;;;;;;;35.30;5.73;;;5.70;99.90;;;;;;5033279;28;20033;-75
2022/01/30 03:24:18;;;;;;;40.47;5.27;;;5.60;99.90;;;;;;5016654;28;20414;-76
2022/01/30 03:26:44;;;;;;;35.97;5.40;;;5.60;99.90;;;;;;5033264;28;20148;-77
2022/01/30 03:29:23;;;;;;;38.87;5.27;;;5.70;99.90;;;;;;5031978;28;20056;-75
2022/01/30 03:31:49;;;;;;;33.83;5.50;;;5.70;99.90;;;;;;5025282;28;20041;-76
2022/01/30 03:34:16;;;;;;;39.70;5.97;;;5.70;99.90;;;;;;5031568;28;20033;-76
2022/01/30 03:36:47;;;;;;;35.90;5.07;;;5.70;99.90;;;;;;5046141;28;20033;-76
2022/01/30 03:39:15;;;;;;;39.80;5.77;;;5.60;99.90;;;;;;5029519;28;20041;-77
2022/01/30 03:41:41;;;;;;;43.60;5.77;;;5.60;99.90;;;;;;5049942;28;20409;-77
2022/01/30 03:44:10;;;;;;;43.40;6.40;;;5.60;99.90;;;;;;5021160;28;20056;-77
2022/01/30 03:46:37;;;;;;;31.83;5.73;;;5.60;99.90;;;;;;5010353;28;20053;-77
2022/01/30 03:49:03;;;;;;;30.73;5.23;;;5.60;99.90;;;;;;5033063;28;20052;-76
2022/01/30 03:51:30;;;;;;;39.27;6.23;;;5.50;99.90;;;;;;5016616;28;20045;-76
2022/01/30 03:54:04;;;;;;;37.03;5.00;;;5.50;99.90;;;;;;5016880;28;20037;-77
2022/01/30 03:56:30;;;;;;;42.87;6.23;;;5.60;99.90;;;;;;5033124;28;20124;-77
2022/01/30 03:58:56;;;;;;;33.10;5.20;;;5.60;99.90;;;;;;5013608;28;20055;-75
2022/01/30 04:01:22;;;;;;;42.10;7.03;;;5.60;99.90;;;;;;5021907;28;20487;-77
2022/01/30 04:03:49;;;;;;;43.20;6.67;;;5.70;99.90;;;;;;5045404;28;20059;-76
2022/01/30 04:06:15;;;;;;;45.67;7.47;;;5.70;99.90;;;;;;5043691;28;20090;-76
2022/01/30 04:08:41;;;;;;;43.20;7.23;;;5.80;99.90;;;;;;5030377;28;20118;-76
2022/01/30 04:11:17;;;;;;;38.57;6.30;;;5.80;99.90;;;;;;5046462;28;20495;-76
2022/01/30 04:13:57;;;;;;;39.90;5.57;;;5.80;99.90;;;;;;5014827;28;20041;-75
2022/01/30 04:16:43;;;;;;;42.30;7.00;;;5.80;99.90;;;;;;5019090;28;20046;-77
2022/01/30 04:19:37;;;;;;;42.63;6.50;;;5.90;99.90;;;;;;5032290;28;20052;-76
2022/01/30 04:22:24;;;;;;;41.60;6.67;;;5.90;99.90;;;;;;5016235;28;20466;-75
2022/01/30 04:25:09;;;;;;;;;;;5.90;99.90;;;;;;5043110;28;20052;-76
2022/01/30 04:28:00;;;;;;;50.57;7.93;;;5.90;99.90;;;;;;5031576;28;19920;-76
2022/01/30 04:30:51;;;;;;;46.37;7.90;;;5.90;99.90;;;;;;5032736;28;20485;-75
2022/01/30 04:33:37;;;;;;;39.70;7.03;;;5.90;99.90;;;;;;5030619;28;20090;-77
2022/01/30 04:36:20;;;;;;;45.37;7.10;;;5.90;99.90;;;;;;5024154;28;20510;-75
2022/01/30 04:51:59;;;;;;;33.20;6.40;;;5.90;99.90;;;;;;4999296;28;20052;-77
2022/01/30 04:55:25;;;;;;;33.37;5.87;;;5.50;99.90;;;;;;5018978;28;20060;-76
2022/01/30 05:00:54;;;;;;;36.17;5.90;;;5.30;99.90;;;;;;5021860;28;20083;-78
2022/01/30 05:06:18;;;;;;;47.17;6.50;;;5.20;99.90;;;;;;5017104;28;20395;-77
2022/01/30 05:09:07;;;;;;;49.00;7.40;;;5.20;99.90;;;;;;5020274;28;20038;-77
2022/01/30 05:11:49;;;;;;;46.17;7.43;;;5.20;99.90;;;;;;5024088;28;20049;-77
2022/01/30 05:14:23;;;;;;;43.63;7.20;;;5.30;99.90;;;;;;5041796;28;20529;-77
2022/01/30 05:17:12;;;;;;;42.97;7.47;;;5.30;99.90;;;;;;5008041;28;20049;-77
2022/01/30 05:19:52;;;;;;;58.00;8.27;;;5.30;99.90;;;;;;5026126;28;20041;-78
2022/01/30 05:22:35;;;;;;;53.77;8.93;;;5.30;99.90;;;;;;5045228;28;20093;-77
2022/01/30 05:25:17;;;;;;;53.50;8.30;;;5.30;99.90;;;;;;5009497;28;20449;-76
2022/01/30 05:27:51;;;;;;;59.93;8.53;;;5.30;99.90;;;;;;5014352;28;20041;-78
2022/01/30 05:30:39;;;;;;;49.97;8.33;;;5.30;99.90;;;;;;5023838;28;20045;-77
2022/01/30 05:33:17;;;;;;;51.93;7.50;;;5.30;99.90;;;;;;5024866;28;20049;-76
2022/01/30 05:36:04;;;;;;;48.73;6.77;;;5.30;99.90;;;;;;5026321;28;20128;-78
2022/01/30 05:39:00;;;;;;;42.77;6.13;;;5.30;99.90;;;;;;5006709;28;20052;-78
2022/01/30 05:41:41;;;;;;;39.53;6.90;;;5.40;99.90;;;;;;5029993;28;20554;-78
2022/01/30 05:44:40;;;;;;;42.20;7.70;;;5.40;99.90;;;;;;5038531;28;20091;-77
2022/01/30 05:47:30;;;;;;;47.13;7.13;;;5.30;99.90;;;;;;5020718;28;20041;-78
2022/01/30 05:50:20;;;;;;;47.47;7.50;;;5.30;99.90;;;;;;5045238;28;20128;-77
2022/01/30 05:53:06;;;;;;;43.63;7.53;;;5.20;99.90;;;;;;5040375;28;20076;-77
2022/01/30 05:55:39;;;;;;;49.30;8.00;;;5.20;99.90;;;;;;5030192;28;20036;-77
2022/01/30 05:58:08;;;;;;;62.80;9.73;;;5.10;99.90;;;;;;5031976;28;20098;-78
2022/01/30 06:00:47;;;;;;;60.57;8.27;;;5.00;99.90;;;;;;5004222;28;20051;-78
2022/01/30 06:03:13;;;;;;;63.90;8.50;;;5.00;99.90;;;;;;5044831;28;20045;-77
2022/01/30 06:05:40;;;;;;;55.30;8.70;;;4.90;99.90;;;;;;5005731;28;20045;-78
2022/01/30 06:08:13;;;;;;;56.13;8.47;;;4.90;99.90;;;;;;5014774;28;20041;-77
2022/01/30 06:10:39;;;;;;;59.63;8.77;;;4.80;99.90;;;;;;5027636;28;20479;-77
2022/01/30 06:13:06;;;;;;;58.97;8.93;;;4.80;99.90;;;;;;5046134;28;20131;-78
2022/01/30 06:15:36;;;;;;;58.53;8.67;;;4.80;99.90;;;;;;5020864;28;20520;-77
2022/01/30 06:18:08;;;;;;;56.37;8.53;;;4.80;99.90;;;;;;5048413;28;20099;-77
2022/01/30 06:20:52;;;;;;;61.15;8.65;;;4.70;99.90;;;;;;5029275;28;20053;-77
2022/01/30 06:23:38;;;;;;;;;;;4.70;99.90;;;;;;5070106;28;20072;-77
2022/01/30 06:26:23;;;;;;;55.63;8.77;;;4.70;99.90;;;;;;5052048;28;19916;-78
2022/01/30 06:29:09;;;;;;;47.75;7.85;;;4.80;99.90;;;;;;5034235;28;20057;-77
2022/01/30 06:31:54;;;;;;;57.83;8.90;;;4.80;99.90;;;;;;5033169;28;20045;-78
2022/01/30 06:34:55;;;;;;;52.33;9.23;;;4.90;99.90;;;;;;4976178;28;20052;-78
2022/01/30 06:37:39;;;;;;;53.72;8.63;;;4.90;99.90;;;;;;5045041;28;20158;-77
2022/01/30 06:40:26;;;;;;;50.30;8.73;;;4.90;99.90;;;;;;5017353;28;20057;-76
2022/01/30 06:43:10;;;;;;;43.50;8.23;;;5.00;99.90;;;;;;5051590;28;20068;-78
2022/01/30 06:45:56;;;;;;;53.55;8.10;;;5.00;99.90;;;;;;5035052;28;20048;-77
2022/01/30 06:48:41;;;;;;;65.33;9.20;;;5.10;99.90;;;;;;5052388;28;20064;-77
2022/01/30 06:51:25;;;;;;;51.30;8.90;;;5.10;99.90;;;;;;5050144;28;20083;-78
2022/01/30 06:54:14;;;;;;;54.33;8.23;;;5.20;99.90;;;;;;5049676;28;20043;-78
2022/01/30 06:57:03;;;;;;;56.57;8.43;;;5.10;99.90;;;;;;5051580;28;20049;-77
2022/01/30 07:00:06;;;;;;;61.27;8.53;;;5.10;99.90;;;;;;4995542;28;20588;-78
2022/01/30 07:02:52;;;;;;;55.33;8.67;;;5.10;99.90;;;;;;5046026;28;20056;-77
2022/01/30 07:05:31;;;;;;;56.60;7.90;;;5.10;99.90;;;;;;5015511;28;20052;-77
2022/01/30 07:08:11;;;;;;;52.70;8.73;;;5.10;99.90;;;;;;5015802;28;20056;-77
2022/01/30 07:10:38;;;;;;;64.90;9.37;;;5.20;99.90;;;;;;5017859;28;20402;-77
2022/01/30 07:13:04;;;;;;;57.10;8.70;;;5.20;99.90;;;;;;5051426;28;20040;-76
2022/01/30 07:15:30;;;;;;;53.80;8.30;;;5.30;99.90;;;;;;5028943;28;20414;-77
2022/01/30 07:17:57;;;;;;;44.13;7.43;;;5.30;99.90;;;;;;5034515;28;20041;-76
2022/01/30 07:20:22;;;;;;;60.97;10.13;;;5.30;99.90;;;;;;5055008;28;20048;-76
2022/01/30 07:22:49;;;;;;;57.63;8.77;;;5.40;99.90;;;;;;5045138;28;20061;-76
2022/01/30 07:25:15;;;;;;;53.83;8.47;;;5.40;99.90;;;;;;5043073;28;20037;-77
2022/01/30 07:27:42;;;;;;;52.00;8.97;;;5.40;99.90;;;;;;5047739;28;20095;-77
2022/01/30 07:30:09;;;;;;;55.97;8.77;;;5.40;99.90;;;;;;5051128;28;20043;-78
2022/01/30 07:32:35;;;;;;;46.80;7.63;;;5.50;99.90;;;;;;5043570;28;20116;-78
2022/01/30 07:35:02;;;;;;;56.33;8.60;;;5.50;99.90;;;;;;5035115;28;20455;-77
2022/01/30 07:37:28;;;;;;;55.17;9.07;;;5.50;99.90;;;;;;5034098;28;20045;-78
2022/01/30 07:39:58;;;;;;;57.27;8.43;;;5.50;99.90;;;;;;5018648;28;20040;-78
2022/01/30 07:42:24;;;;;;;41.80;7.83;;;5.50;99.90;;;;;;5034201;28;20723;-77
2022/01/30 07:44:52;;;;;;;52.17;7.60;;;5.50;99.90;;;;;;5022125;28;20036;-79
2022/01/30 07:47:18;;;;;;;60.23;10.37;;;5.60;99.90;;;;;;5047621;28;20520;-77
2022/01/30 07:49:49;;;;;;;50.13;7.87;;;5.60;99.90;;;;;;5052561;28;20099;-79
2022/01/30 07:52:16;;;;;;;54.57;8.20;;;5.60;99.90;;;;;;5032958;28;20099;-78
2022/01/30 07:54:42;;;;;;;55.87;8.43;;;5.60;99.90;;;;;;5026691;28;20038;-77
2022/01/30 07:57:07;;;;;;;51.47;8.43;;;5.70;99.90;;;;;;5063358;28;20048;-78
2022/01/30 07:59:33;;;;;;;53.20;8.30;;;5.70;99.90;;;;;;5051406;28;20498;-76
2022/01/30 08:01:59;;;;;;;54.73;8.10;;;5.70;99.90;;;;;;5049698;28;20123;-77
2022/01/30 08:04:26;;;;;;;53.30;8.13;;;5.80;99.90;;;;;;5050996;28;20434;-76
2022/01/30 08:06:51;;;;;;;49.83;8.83;;;5.80;99.90;;;;;;5033573;28;20045;-77
2022/01/30 08:09:18;;;;;;;54.27;8.83;;;5.80;99.90;;;;;;5051047;28;20049;-76
2022/01/30 08:11:44;;;;;;;55.97;8.23;;;5.80;99.90;;;;;;5019608;28;20048;-77
2022/01/30 08:14:10;;;;;;;52.73;8.30;;;5.80;99.90;;;;;;5050156;28;20067;-77
2022/01/30 08:16:36;;;;;;;62.07;9.20;;;5.90;99.90;;;;;;5044043;28;20045;-76
2022/01/30 08:19:01;;;;;;;60.43;10.07;;;5.90;99.90;;;;;;5039555;28;20128;-77
2022/01/30 08:21:27;;;;;;;55.27;8.23;;;5.90;99.90;;;;;;5059254;28;20112;-77
2022/01/30 08:23:52;;;;;;;52.43;8.00;;;5.90;99.90;;;;;;5038786;28;20487;-76
2022/01/30 08:26:20;;;;;;;57.17;8.27;;;5.90;99.90;;;;;;5049603;28;20053;-75
2022/01/30 08:28:45;;;;;;;49.43;8.00;;;6.00;99.90;;;;;;5012850;28;20144;-77
2022/01/30 08:31:11;;;;;;;52.57;8.27;;;6.00;99.90;;;;;;5048181;28;20139;-77
2022/01/30 08:33:37;;;;;;;42.77;7.77;;;6.00;99.90;;;;;;5015765;28;20036;-77
2022/01/30 08:36:03;;;;;;;50.27;8.37;;;6.00;99.90;;;;;;5032261;28;20048;-78
2022/01/30 08:38:28;;;;;;;45.80;6.77;;;6.00;99.90;;;;;;5046908;28;20055;-77
2022/01/30 08:40:54;;;;;;;42.57;7.10;;;6.10;99.90;;;;;;5033962;28;20037;-77
2022/01/30 08:43:22;;;;;;;41.03;8.07;;;6.10;99.90;;;;;;5047999;28;20080;-77
2022/01/30 08:45:48;;;;;;;44.57;7.00;;;6.10;99.90;;;;;;5052427;28;20078;-79
2022/01/30 08:48:14;;;;;;;47.13;6.87;;;6.10;99.90;;;;;;5025071;28;20552;-78
2022/01/30 08:50:40;;;;;;;49.63;7.27;;;6.10;99.90;;;;;;5031955;28;20041;-77
2022/01/30 08:53:05;;;;;;;43.33;7.70;;;6.10;99.90;;;;;;5050432;28;20080;-76
2022/01/30 08:55:33;;;;;;;42.77;7.97;;;6.10;99.90;;;;;;5034546;28;20047;-77
2022/01/30 08:58:00;;;;;;;42.23;8.03;;;6.30;99.90;;;;;;5048266;28;20055;-77
2022/01/30 09:00:27;;;;;;;55.00;7.77;;;6.40;99.90;;;;;;5031973;28;20506;-77
2022/01/30 09:02:54;;;;;;;48.93;7.27;;;6.40;99.90;;;;;;5056239;28;20053;-76
2022/01/30 09:05:24;;;;;;;50.10;8.00;;;6.40;99.90;;;;;;5026376;22;20041;-77
2022/01/30 09:07:49;;;;;;;42.83;6.47;;;6.30;99.90;;;;;;5010727;28;20061;-78
2022/01/30 09:10:15;;;;;;;57.10;7.67;;;6.40;99.90;;;;;;5011978;28;20049;-78
2022/01/30 09:12:41;;;;;;;44.70;7.37;;;6.50;99.90;;;;;;5010534;28;20585;-77
2022/01/30 09:15:10;;;;;;;50.47;8.87;;;6.70;99.90;;;;;;4995566;28;20507;-78
2022/01/30 09:17:39;;;;;;;59.07;8.03;;;6.90;99.90;;;;;;5004934;28;20507;-77
2022/01/30 09:20:06;;;;;;;53.03;8.33;;;7.10;99.90;;;;;;5011847;28;20512;-78
2022/01/30 09:22:32;;;;;;;46.13;8.73;;;7.20;99.90;;;;;;5011879;28;20091;-77
2022/01/30 09:24:58;;;;;;;43.73;7.67;;;7.20;99.90;;;;;;4994763;28;20068;-77
2022/01/30 09:27:24;;;;;;;40.27;7.90;;;7.10;99.90;;;;;;4994946;28;20454;-77
2022/01/30 09:29:49;;;;;;;49.47;8.27;;;7.10;99.90;;;;;;4979372;28;20099;-77
2022/01/30 09:32:16;;;;;;;51.07;8.00;;;7.10;99.90;;;;;;4980884;28;20045;-77
2022/01/30 09:34:43;;;;;;;59.30;10.03;;;7.10;99.90;;;;;;5010648;28;20037;-77
2022/01/30 09:37:09;;;;;;;46.23;8.70;;;7.50;99.90;;;;;;4978543;28;20045;-77
2022/01/30 09:39:36;;;;;;;51.50;9.40;;;8.20;99.90;;;;;;5011071;28;20041;-77
2022/01/30 09:42:03;;;;;;;48.67;9.03;;;9.00;99.90;;;;;;5010109;28;20400;-78
2022/01/30 09:44:30;;;;;;;42.47;7.57;;;9.90;99.90;;;;;;4995004;28;20049;-77
2022/01/30 09:46:56;;;;;;;50.97;8.17;;;10.50;99.90;;;;;;4978857;28;20514;-77
2022/01/30 09:49:23;;;;;;;41.37;7.43;;;10.40;99.90;;;;;;4979531;28;20037;-77
2022/01/30 09:51:52;;;;;;;50.90;8.57;;;10.00;99.90;;;;;;5014799;28;20045;-77
2022/01/30 09:54:18;;;;;;;47.30;8.40;;;9.70;99.90;;;;;;5013055;28;20393;-78
2022/01/30 09:56:44;;;;;;;46.67;8.47;;;10.20;99.90;;;;;;4998699;28;20096;-78
2022/01/30 09:59:09;;;;;;;48.77;8.93;;;11.10;99.90;;;;;;4999026;28;20088;-77
2022/01/30 10:01:37;;;;;;;43.03;9.07;;;11.90;99.90;;;;;;4998553;28;20045;-77
2022/01/30 10:04:05;;;;;;;44.33;8.23;;;11.90;99.90;;;;;;5012588;28;20060;-77
2022/01/30 10:06:49;;;;;;;55.73;9.33;;;11.40;99.90;;;;;;4997902;28;20511;-78
2022/01/30 10:09:25;;;;;;;53.80;9.35;;;10.90;99.90;;;;;;4982328;28;20495;-77
2022/01/30 10:12:00;;;;;;;42.37;8.60;;;10.40;99.90;;;;;;4998973;28;20399;-77
2022/01/30 10:14:26;;;;;;;40.87;7.77;;;10.00;99.90;;;;;;4997469;28;20403;-77
2022/01/30 10:16:52;;;;;;;47.50;8.13;;;9.90;99.90;;;;;;5014388;28;20083;-77
2022/01/30 10:19:21;;;;;;;51.40;8.30;;;10.30;99.90;;;;;;4976089;28;20049;-77
2022/01/30 10:21:48;;;;;;;44.83;8.17;;;11.20;99.90;;;;;;4978765;28;20518;-77
2022/01/30 10:24:20;;;;;;;37.80;8.67;;;12.10;99.90;;;;;;5011303;28;20060;-77
2022/01/30 10:26:46;;;;;;;40.27;9.43;;;12.90;99.90;;;;;;4998335;28;20045;-77
2022/01/30 10:29:23;;;;;;;37.93;7.93;;;13.80;99.90;;;;;;5014592;28;20057;-77
2022/01/30 10:32:00;;;;;;;49.03;8.87;;;14.50;97.50;;;;;;5017623;28;20045;-79
2022/01/30 10:34:29;;;;;;;45.70;8.80;;;15.00;94.80;;;;;;5012753;28;20121;-78
2022/01/30 10:37:18;;;;;;;41.57;8.13;;;15.30;94.80;;;;;;5012884;28;20120;-79
2022/01/30 10:40:07;;;;;;;34.30;7.27;;;15.80;94.20;;;;;;5010026;28;20492;-79
2022/01/30 10:42:35;;;;;;;44.67;9.07;;;16.10;92.30;;;;;;5013359;28;20055;-78
2022/01/30 10:45:01;;;;;;;33.93;7.77;;;16.60;92.40;;;;;;5006017;28;20042;-80
2022/01/30 10:47:30;;;;;;;33.27;7.70;;;17.00;90.10;;;;;;4970956;28;20045;-77
2022/01/30 10:49:56;;;;;;;43.43;7.80;;;17.10;88.40;;;;;;4996079;28;20140;-78
2022/01/30 10:52:23;;;;;;;34.53;7.77;;;17.30;88.20;;;;;;4996761;28;20152;-77
2022/01/30 10:54:50;;;;;;;46.70;9.27;;;17.70;86.00;;;;;;4989306;28;20041;-78
2022/01/30 10:57:17;;;;;;;46.03;8.90;;;17.40;84.10;;;;;;5010175;28;20614;-78
2022/01/30 10:59:46;;;;;;;40.37;8.80;;;16.50;82.10;;;;;;5027432;28;20507;-78
2022/01/30 11:02:12;;;;;;;55.73;9.40;;;15.40;80.60;;;;;;4995530;28;20049;-77
2022/01/30 11:04:38;;;;;;;38.10;8.30;;;14.30;83.70;;;;;;5010544;28;20467;-77
2022/01/30 11:07:05;;;;;;;45.13;8.20;;;13.30;87.60;;;;;;5011035;28;20400;-76
2022/01/30 11:09:39;;;;;;;46.30;8.30;;;12.50;90.10;;;;;;5012671;28;20068;-77
2022/01/30 11:12:16;;;;;;;44.33;9.07;;;11.80;91.20;;;;;;4986679;28;20037;-78
2022/01/30 11:17:15;;;;;;;44.03;8.07;;;11.00;93.00;;;;;;5010143;28;20053;-77
2022/01/30 11:19:42;;;;;;;42.57;8.37;;;10.90;93.60;;;;;;4988832;28;20145;-77
2022/01/30 11:22:10;;;;;;;38.23;8.17;;;11.30;94.40;;;;;;5012121;28;20049;-78
2022/01/30 11:24:44;;;;;;;34.00;7.93;;;12.10;93.60;;;;;;5004124;28;20046;-78
2022/01/30 11:27:10;;;;;;;38.92;7.93;;;12.90;93.30;;;;;;4994215;28;20467;-78
2022/01/30 11:29:37;;;;;;;38.13;7.77;;;13.70;92.50;;;;;;4995167;28;20049;-78
2022/01/30 11:32:06;;;;;;;45.13;7.73;;;14.30;91.80;;;;;;4981127;28;20118;-77
2022/01/30 11:34:32;;;;;;;38.17;7.73;;;14.80;90.30;;;;;;5021388;28;20476;-78
2022/01/30 11:36:58;;;;;;;32.17;7.50;;;15.20;86.90;;;;;;5011825;28;20076;-77
2022/01/30 11:39:24;;;;;;;32.80;7.53;;;15.50;86.50;;;;;;5009728;28;20049;-77
2022/01/30 11:42:14;;;;;;;32.13;7.03;;;15.90;86.20;;;;;;4995674;28;20107;-77
2022/01/30 11:44:40;;;;;;;30.47;7.13;;;16.40;84.60;;;;;;4994031;28;20041;-77
2022/01/30 11:47:24;;;;;;;30.07;6.37;;;16.80;84.40;;;;;;4994679;28;20049;-79
2022/01/30 11:50:07;;;;;;;29.63;7.03;;;17.10;80.90;;;;;;5013470;28;20076;-78
2022/01/30 11:52:57;;;;;;;39.00;7.83;;;17.50;80.70;;;;;;4982817;28;20075;-78
2022/01/30 11:55:48;;;;;;;34.00;7.30;;;17.60;78.10;;;;;;5014907;28;20323;-78
2022/01/30 11:58:43;;;;;;;28.80;6.73;;;17.20;74.00;;;;;;4988298;28;20093;-78
2022/01/30 12:01:37;;;;;;;30.03;6.67;;;17.00;74.90;;;;;;4998459;28;20402;-77
2022/01/30 12:04:09;;;;;;;29.40;7.03;;;16.70;73.90;;;;;;5013713;28;20072;-77
2022/01/30 12:06:36;;;;;;;33.13;6.83;;;16.30;75.90;;;;;;4990609;28;20484;-78
2022/01/30 12:09:04;;;;;;;29.53;6.50;;;16.40;74.00;;;;;;5014685;28;20053;-77
2022/01/30 12:11:53;;;;;;;28.93;6.23;;;16.40;74.60;;;;;;5014796;28;20052;-78
2022/01/30 12:14:55;;;;;;;27.33;6.63;;;16.80;73.60;;;;;;4997554;28;20041;-78
2022/01/30 12:17:49;;;;;;;33.83;7.00;;;17.10;73.30;;;;;;4997492;28;20049;-79
2022/01/30 12:20:20;;;;;;;30.80;7.27;;;17.30;72.20;;;;;;4994056;28;20494;-77
2022/01/30 12:22:46;;;;;;;31.23;6.93;;;17.40;71.80;;;;;;4997055;28;20045;-79
2022/01/30 12:25:34;;;;;;;33.60;7.47;;;17.30;67.70;;;;;;5013469;28;20052;-77
2022/01/30 12:28:12;;;;;;;34.63;6.87;;;17.20;70.20;;;;;;5014269;28;20046;-78
2022/01/30 12:30:50;;;;;;;33.17;6.47;;;17.10;66.20;;;;;;4998034;28;20124;-78
2022/01/30 12:33:36;;;;;;;35.47;6.63;;;16.60;65.30;;;;;;4980994;28;20052;-78
2022/01/30 12:36:10;;;;;;;30.50;6.13;;;16.00;66.80;;;;;;4979327;28;20128;-78
2022/01/30 12:38:36;;;;;;;31.90;7.13;;;15.20;66.70;;;;;;5023079;28;20049;-77
2022/01/30 12:41:13;;;;;;;34.90;7.23;;;14.70;70.10;;;;;;5013992;28;20050;-77
2022/01/30 12:43:40;;;;;;;29.43;6.90;;;14.80;72.70;;;;;;5000032;28;20495;-77
2022/01/30 12:46:07;;;;;;;35.87;7.70;;;15.10;72.40;;;;;;4997814;28;20056;-76
2022/01/30 12:48:33;;;;;;;35.60;6.90;;;15.20;72.30;;;;;;5013897;28;20056;-78
2022/01/30 12:51:04;;;;;;;35.47;6.50;;;15.40;72.40;;;;;;5014074;28;20050;-78
2022/01/30 12:53:34;;;;;;;32.67;6.47;;;15.30;71.50;;;;;;4995099;28;20128;-79
2022/01/30 12:56:00;;;;;;;27.47;6.17;;;15.30;72.80;;;;;;4981278;28;20041;-77
2022/01/30 12:58:32;;;;;;;32.67;6.70;;;15.10;73.90;;;;;;5013499;28;20128;-78
2022/01/30 13:01:09;;;;;;;35.13;6.43;;;15.10;72.50;;;;;;5013968;28;20049;-78
2022/01/30 13:03:34;;;;;;;35.00;7.30;;;14.90;71.20;;;;;;4996306;28;20045;-78
2022/01/30 13:06:00;;;;;;;34.53;7.50;;;14.80;74.10;;;;;;4997201;28;20037;-78
2022/01/30 13:08:45;;;;;;;34.33;6.60;;;14.60;73.10;;;;;;4980963;28;20069;-76
2022/01/30 13:11:14;;;;;;;;;;;14.40;73.90;;;;;;4997063;28;20595;-78
2022/01/30 13:13:55;;;;;;;36.57;7.43;;;14.10;73.80;;;;;;4977750;28;19928;-77
2022/01/30 13:16:23;;;;;;;36.20;6.90;;;13.90;73.70;;;;;;4996978;28;20037;-77
2022/01/30 13:18:48;;;;;;;38.60;7.27;;;13.80;75.80;;;;;;5013535;28;20072;-77
2022/01/30 13:21:14;;;;;;;36.93;7.33;;;13.80;76.10;;;;;;5008034;28;20491;-77
2022/01/30 13:23:46;;;;;;;40.00;7.30;;;13.80;76.60;;;;;;5011853;28;20099;-77
2022/01/30 13:26:26;;;;;;;36.20;6.90;;;13.30;75.60;;;;;;5017288;28;20105;-77
2022/01/30 13:28:52;;;;;;;39.57;7.73;;;12.70;76.90;;;;;;5017269;28;20056;-76
2022/01/30 13:31:17;;;;;;;39.40;6.43;;;12.10;78.70;;;;;;5016140;28;20132;-78
2022/01/30 13:33:43;;;;;;;41.07;6.83;;;11.60;79.80;;;;;;5017664;28;20050;-76
2022/01/30 13:36:21;;;;;;;32.87;6.50;;;11.10;81.30;;;;;;5000923;28;20140;-77
2022/01/30 13:38:48;;;;;;;30.10;5.80;;;10.60;81.70;;;;;;5011361;28;20053;-76
2022/01/30 13:41:24;;;;;;;38.83;6.93;;;10.30;82.80;;;;;;5002455;28;20099;-76
2022/01/30 13:43:54;;;;;;;40.27;7.00;;;10.10;83.70;;;;;;4999387;28;20300;-78
2022/01/30 13:49:05;;;;;;;38.88;7.80;;;9.80;84.50;;;;;;5017395;28;20473;-77
2022/01/30 13:51:31;;;;;;;41.87;8.00;;;9.90;84.70;;;;;;5017273;28;20053;-77
2022/01/30 13:54:07;;;;;;;25.47;6.17;;;10.00;84.90;;;;;;4979738;28;20063;-77
2022/01/30 13:56:34;;;;;;;38.50;6.20;;;10.10;85.90;;;;;;5008845;28;20045;-78
2022/01/30 13:59:00;;;;;;;43.07;7.17;;;10.10;86.10;;;;;;5000634;28;20046;-77
2022/01/30 14:01:30;;;;;;;31.83;5.80;;;10.10;85.50;;;;;;4994557;28;20580;-77